Time;durP1;ratioP1;P1;durP2;ratioP2;P2;SDS_P1;SDS_P2;PMS_P1;PMS_P2;Temp;Humidity;BMP_temperature;BMP_pressure;BME280_temperature;BME280_humidity;BME280_pressure;Samples;Min_cycle;Max_cycle;Signal;HPM_P1;HPM_P2
2021/12/12 00:01:44;;;;;;;;;;;1.80;99.90;;;;;;5002374;28;20437;-92
2021/12/12 00:04:14;;;;;;;;;;;1.90;99.90;;;;;;5002621;28;20396;-92
2021/12/12 00:06:45;;;;;;;;;;;1.90;99.90;;;;;;5002885;28;20496;-93
2021/12/12 00:09:18;;;;;;;;;;;1.90;99.90;;;;;;5010785;28;19980;-92
2021/12/12 00:11:44;;;;;;;;;;;2.00;99.90;;;;;;5017485;28;19908;-92
2021/12/12 00:14:18;;;;;;;;;;;2.20;99.90;;;;;;5015766;28;19916;-92
2021/12/12 00:16:44;;;;;;;;;;;2.30;99.90;;;;;;5003398;28;19996;-92
2021/12/12 00:19:10;;;;;;;;;;;2.20;99.90;;;;;;5002361;28;19959;-92
2021/12/12 00:21:36;;;;;;;;;;;2.10;99.90;;;;;;5004175;28;20383;-93
2021/12/12 00:24:04;;;;;;;;;;;2.10;99.90;;;;;;5002283;28;20273;-93
2021/12/12 00:26:29;;;;;;;;;;;2.00;99.90;;;;;;5002397;28;20323;-92
2021/12/12 00:28:55;;;;;;;;;;;1.90;99.90;;;;;;5002511;28;19963;-92
2021/12/12 00:31:22;;;;;;;;;;;1.90;99.90;;;;;;5001839;28;19905;-92
2021/12/12 00:33:50;;;;;;;;;;;1.90;99.90;;;;;;5001713;28;19951;-91
2021/12/12 00:36:17;;;;;;;;;;;1.80;99.90;;;;;;5001523;28;19951;-92
2021/12/12 00:38:47;;;;;;;;;;;1.70;99.90;;;;;;5001806;28;19905;-92
2021/12/12 00:41:15;;;;;;;;;;;1.70;99.90;;;;;;5001673;28;19934;-92
2021/12/12 00:43:43;;;;;;;;;;;1.80;99.90;;;;;;5001571;28;19913;-92
2021/12/12 00:46:09;;;;;;;;;;;1.90;99.90;;;;;;5002131;28;20468;-92
2021/12/12 00:48:36;;;;;;;;;;;1.80;99.90;;;;;;5002833;28;19905;-92
2021/12/12 00:51:04;;;;;;;;;;;1.70;99.90;;;;;;5001574;28;20421;-92
2021/12/12 00:53:30;;;;;;;;;;;1.90;99.90;;;;;;5001313;28;19916;-92
2021/12/12 00:55:56;;;;;;;;;;;1.80;99.90;;;;;;5001847;28;19905;-92
2021/12/12 00:58:23;;;;;;;;;;;1.80;99.90;;;;;;5001743;28;20294;-92
2021/12/12 01:00:54;;;;;;;;;;;1.80;99.90;;;;;;5001354;28;19905;-92
2021/12/12 01:03:23;;;;;;;;;;;1.90;99.90;;;;;;5001745;28;19948;-91
2021/12/12 01:05:49;;;;;;;;;;;1.90;99.90;;;;;;5002195;28;20156;-92
2021/12/12 01:08:15;;;;;;;;;;;1.80;99.90;;;;;;5005713;28;19911;-92
2021/12/12 01:10:43;;;;;;;;;;;1.90;99.90;;;;;;5007576;28;20020;-92
2021/12/12 01:13:09;;;;;;;;;;;1.90;99.90;;;;;;5007206;28;19913;-92
2021/12/12 01:15:44;;;;;;;;;;;1.90;99.90;;;;;;5006651;28;19905;-93
2021/12/12 01:18:11;;;;;;;;;;;1.80;99.90;;;;;;5004023;28;19959;-92
2021/12/12 01:20:57;;;;;;;;;;;1.90;99.90;;;;;;5002691;28;19905;-92
2021/12/12 01:23:35;;;;;;;;;;;2.00;99.90;;;;;;5001948;28;19905;-92
2021/12/12 01:26:01;;;;;;;;;;;1.90;99.90;;;;;;5001800;28;19916;-93
2021/12/12 01:28:29;;;;;;;;;;;1.90;99.90;;;;;;5001548;28;20003;-92
2021/12/12 01:30:57;;;;;;;;;;;1.90;99.90;;;;;;5001251;28;19912;-92
2021/12/12 01:33:33;;;;;;;;;;;2.00;99.90;;;;;;5000871;28;19905;-92
2021/12/12 01:36:11;;;;;;;;;;;2.10;99.90;;;;;;5000510;28;19905;-92
2021/12/12 01:38:56;;;;;;;;;;;2.10;99.90;;;;;;5000880;28;19906;-92
2021/12/12 01:41:25;;;;;;;;;;;2.10;99.90;;;;;;5001188;28;19909;-93
2021/12/12 01:43:53;;;;;;;;;;;2.20;99.90;;;;;;5001571;28;19919;-92
2021/12/12 01:46:21;;;;;;;;;;;2.30;99.90;;;;;;5015784;28;19897;-92
2021/12/12 01:48:55;;;;;;;;;;;2.20;99.90;;;;;;5024222;28;19916;-93
2021/12/12 01:51:21;;;;;;;;;;;2.20;99.90;;;;;;5007106;28;19944;-92
2021/12/12 01:53:49;;;;;;;;;;;2.10;99.90;;;;;;5001341;28;19956;-92
2021/12/12 01:56:35;;;;;;;;;;;2.10;99.90;;;;;;5000774;28;19987;-92
2021/12/12 01:59:02;;;;;;;;;;;2.10;99.90;;;;;;5000265;28;19905;-93
2021/12/12 02:01:31;;;;;;;;;;;2.20;99.90;;;;;;5000819;28;19912;-93
2021/12/12 02:04:09;;;;;;;;;;;2.20;99.90;;;;;;5008635;28;19951;-92
2021/12/12 02:06:35;;;;;;;;;;;2.10;99.90;;;;;;5025221;28;19908;-93
2021/12/12 02:09:01;;;;;;;;;;;2.00;99.90;;;;;;5012736;28;20004;-93
2021/12/12 02:11:29;;;;;;;;;;;2.00;99.90;;;;;;5005085;28;19905;-93
2021/12/12 02:13:56;;;;;;;;;;;2.00;99.90;;;;;;5004742;28;20394;-92
2021/12/12 02:16:23;;;;;;;;;;;2.10;99.90;;;;;;5003892;28;20000;-92
2021/12/12 02:18:52;;;;;;;;;;;2.20;99.90;;;;;;5004496;28;20297;-93
2021/12/12 02:21:24;;;;;;;;;;;2.20;99.90;;;;;;5004268;28;19905;-92
2021/12/12 02:37:28;;;;;;;;;;;2.40;99.90;;;;;;5020657;28;19962;-93
2021/12/12 02:39:54;;;;;;;;;;;2.30;99.90;;;;;;5004244;28;19916;-92
2021/12/12 02:42:21;;;;;;;;;;;2.10;99.90;;;;;;5003907;28;19955;-92
2021/12/12 02:44:49;;;;;;;;;;;2.10;99.90;;;;;;5007784;28;19909;-92
2021/12/12 02:47:18;;;;;;;;;;;2.10;99.90;;;;;;5008912;28;19905;-93
2021/12/12 02:52:19;;;;;;;;;;;2.30;99.90;;;;;;5020648;28;19914;-93
2021/12/12 02:54:45;;;;;;;;;;;2.20;99.90;;;;;;5003955;28;19905;-92
2021/12/12 02:57:12;;;;;;;;;;;2.20;99.90;;;;;;5004021;28;19905;-92
2021/12/12 02:59:39;;;;;;;;;;;2.20;99.90;;;;;;5003920;28;20376;-92
2021/12/12 03:02:11;;;;;;;;;;;2.10;99.90;;;;;;5004198;28;19921;-93
2021/12/12 03:04:37;;;;;;;;;;;2.10;99.90;;;;;;5004218;28;19909;-92
2021/12/12 03:07:05;;;;;;;;;;;2.00;99.90;;;;;;5003613;28;20003;-92
2021/12/12 03:09:36;;;;;;;;;;;2.20;99.90;;;;;;5004068;28;19912;-93
2021/12/12 03:12:07;;;;;;;;;;;2.20;99.90;;;;;;5003552;28;20317;-93
2021/12/12 03:14:34;;;;;;;;;;;2.10;99.90;;;;;;5003516;28;19912;-93
2021/12/12 03:17:01;;;;;;;;;;;2.20;99.90;;;;;;5002478;28;19912;-93
2021/12/12 03:19:27;;;;;;;;;;;2.10;99.90;;;;;;5003759;28;19905;-92
2021/12/12 03:21:53;;;;;;;;;;;2.20;99.90;;;;;;5003523;28;19914;-92
2021/12/12 03:24:20;;;;;;;;;;;2.20;99.90;;;;;;5003581;28;19947;-93
2021/12/12 03:26:47;;;;;;;;;;;2.30;99.90;;;;;;5002699;28;19909;-92
2021/12/12 03:29:13;;;;;;;;;;;2.30;99.90;;;;;;5003444;28;19912;-92
2021/12/12 03:31:41;;;;;;;;;;;2.30;99.90;;;;;;5003469;28;20275;-92
2021/12/12 03:34:09;;;;;;;;;;;2.30;99.90;;;;;;5002946;28;19905;-92
2021/12/12 03:36:36;;;;;;;;;;;2.30;99.90;;;;;;5002757;28;19912;-92
2021/12/12 03:39:07;;;;;;;;;;;2.40;99.90;;;;;;5003197;28;19909;-92
2021/12/12 03:41:34;;;;;;;;;;;2.30;99.90;;;;;;5003467;28;19951;-92
2021/12/12 03:44:02;;;;;;;;;;;2.30;99.90;;;;;;5044888;23;19972;-89
2021/12/12 03:46:28;;;;;;;;;;;2.20;99.90;;;;;;5014403;28;19920;-92
2021/12/12 03:48:55;;;;;;;;;;;2.30;99.90;;;;;;5014636;28;20003;-91
2021/12/12 03:51:21;;;;;;;;;;;2.30;99.90;;;;;;5014824;28;19909;-91
2021/12/12 03:53:47;;;;;;;;;;;2.20;99.90;;;;;;5014375;28;19909;-91
2021/12/12 03:56:14;;;;;;;;;;;2.20;99.90;;;;;;4998072;28;19996;-91
2021/12/12 03:58:40;;;;;;;;;;;2.10;99.90;;;;;;4998439;28;19905;-91
2021/12/12 04:01:09;;;;;;;;;;;2.20;99.90;;;;;;4998197;28;19916;-92
2021/12/12 04:03:35;;;;;;;;;;;2.20;99.90;;;;;;4997812;28;19912;-91
2021/12/12 04:06:02;;;;;;;;;;;2.10;99.90;;;;;;4997845;28;19909;-91
2021/12/12 04:08:37;;;;;;;;;;;2.20;99.90;;;;;;4998479;28;20587;-91
2021/12/12 04:11:04;;;;;;;;;;;2.30;99.90;;;;;;5001169;28;19913;-92
2021/12/12 04:13:30;;;;;;;;;;;2.40;99.90;;;;;;4999038;28;19913;-91
2021/12/12 04:15:56;;;;;;;;;;;2.40;99.90;;;;;;4998865;28;19909;-91
2021/12/12 04:18:23;;;;;;;;;;;2.30;99.90;;;;;;4998582;28;19905;-91
2021/12/12 04:20:49;;;;;;;;;;;2.30;99.90;;;;;;4998416;28;19905;-91
2021/12/12 04:23:19;;;;;;;;;;;2.30;99.90;;;;;;4997806;28;19906;-92
2021/12/12 04:25:44;;;;;;;;;;;2.20;99.90;;;;;;5013502;28;19921;-91
2021/12/12 04:28:10;;;;;;;;;;;2.10;99.90;;;;;;4997146;28;20322;-91
2021/12/12 04:30:36;;;;;;;;;;;2.10;99.90;;;;;;4997535;28;19945;-91
2021/12/12 04:33:02;;;;;;;;;;;2.10;99.90;;;;;;5030208;28;19917;-91
2021/12/12 04:35:27;;;;;;;;;;;2.20;99.90;;;;;;4997314;28;20286;-91
2021/12/12 04:37:54;;;;;;;;;;;2.30;99.90;;;;;;4997315;28;19912;-91
2021/12/12 04:40:22;;;;;;;;;;;2.20;99.90;;;;;;4997228;28;19988;-91
2021/12/12 04:42:48;;;;;;;;;;;2.30;99.90;;;;;;4999800;28;19905;-91
2021/12/12 04:45:41;;;;;;;;;;;2.30;99.90;;;;;;5013580;28;20275;-91
2021/12/12 04:51:21;;;;;;;;;;;2.50;99.90;;;;;;5029987;28;19906;-91
2021/12/12 04:53:56;;;;;;;;;;;2.50;99.90;;;;;;5013312;28;19905;-92
2021/12/12 04:56:24;;;;;;;;;;;2.70;99.90;;;;;;4996739;28;19956;-92
2021/12/12 04:58:57;;;;;;;;;;;2.60;99.90;;;;;;4997169;28;19992;-91
2021/12/12 05:02:01;;;;;;;;;;;2.70;99.90;;;;;;4996895;28;20290;-91
2021/12/12 05:04:30;;;;;;;;;;;2.70;99.90;;;;;;4992743;28;19952;-92
2021/12/12 05:07:02;;;;;;;;;;;2.70;99.90;;;;;;4992485;28;19956;-91
2021/12/12 05:09:35;;;;;;;;;;;2.60;99.90;;;;;;4990833;28;19905;-89
2021/12/12 05:12:03;;;;;;;;;;;2.50;99.90;;;;;;5022034;28;19925;-89
2021/12/12 05:14:33;;;;;;;;;;;2.60;99.90;;;;;;5021576;28;19898;-90
2021/12/12 05:17:09;;;;;;;;;;;2.50;99.90;;;;;;5005923;28;20326;-91
2021/12/12 05:19:36;;;;;;;;;;;2.50;99.90;;;;;;4997766;28;19909;-91
2021/12/12 05:22:06;;;;;;;;;;;2.60;99.90;;;;;;4997719;28;19910;-91
2021/12/12 05:24:33;;;;;;;;;;;2.50;99.90;;;;;;4997026;28;19940;-91
2021/12/12 05:27:03;;;;;;;;;;;2.30;99.90;;;;;;4996381;28;19959;-92
2021/12/12 05:29:34;;;;;;;;;;;2.60;99.90;;;;;;4996965;28;19975;-91
2021/12/12 05:32:02;;;;;;;;;;;2.60;99.90;;;;;;4996447;28;19909;-91
2021/12/12 05:34:30;;;;;;;;;;;2.60;99.90;;;;;;4997047;28;19951;-91
2021/12/12 05:36:57;;;;;;;;;;;2.50;99.90;;;;;;5007874;28;19915;-91
2021/12/12 05:39:24;;;;;;;;;;;2.50;99.90;;;;;;5021012;28;20959;-91
2021/12/12 05:41:51;;;;;;;;;;;2.60;99.90;;;;;;4999023;28;20400;-91
2021/12/12 05:44:16;;;;;;;;;;;2.70;99.90;;;;;;4996207;28;20127;-91
2021/12/12 05:46:42;;;;;;;;;;;2.50;99.90;;;;;;5012741;28;19918;-91
2021/12/12 05:49:09;;;;;;;;;;;2.50;99.90;;;;;;4996452;28;19928;-91
2021/12/12 05:51:35;;;;;;;;;;;2.60;99.90;;;;;;4996562;28;20116;-91
2021/12/12 05:54:01;;;;;;;;;;;2.70;99.90;;;;;;4996246;28;19906;-91
2021/12/12 05:56:32;;;;;;;;;;;2.70;99.90;;;;;;4996168;28;19956;-91
2021/12/12 05:58:58;;;;;;;;;;;2.80;99.90;;;;;;4996317;28;19913;-91
2021/12/12 06:01:24;;;;;;;;;;;3.00;99.90;;;;;;4996487;28;19906;-91
2021/12/12 06:03:51;;;;;;;;;;;3.00;99.90;;;;;;4995883;28;19911;-91
2021/12/12 06:06:23;;;;;;;;;;;3.10;99.90;;;;;;4995829;28;20493;-92
2021/12/12 06:08:49;;;;;;;;;;;3.00;99.90;;;;;;4995973;28;19905;-91
2021/12/12 06:11:19;;;;;;;;;;;2.80;99.90;;;;;;4996306;28;19913;-91
2021/12/12 06:13:45;;;;;;;;;;;2.90;99.90;;;;;;4996334;28;19912;-91
2021/12/12 06:16:18;;;;;;;;;;;2.90;99.90;;;;;;4995946;28;19948;-91
2021/12/12 06:18:45;;;;;;;;;;;2.70;99.90;;;;;;4995888;28;19906;-92
2021/12/12 06:21:11;;;;;;;;;;;2.70;99.90;;;;;;4996000;28;19948;-91
2021/12/12 06:23:37;;;;;;;;;;;2.60;99.90;;;;;;4996163;28;19912;-91
2021/12/12 06:26:02;;;;;;;;;;;2.60;99.90;;;;;;4995673;28;19964;-91
2021/12/12 06:28:31;;;;;;;;;;;2.40;99.90;;;;;;4996256;28;19906;-91
2021/12/12 06:30:57;;;;;;;;;;;2.30;99.90;;;;;;4995831;28;20008;-91
2021/12/12 06:33:22;;;;;;;;;;;2.40;99.90;;;;;;4995791;28;19928;-91
2021/12/12 06:35:48;;;;;;;;;;;2.30;99.90;;;;;;4996452;28;19905;-91
2021/12/12 06:38:14;;;;;;;;;;;2.40;99.90;;;;;;4995988;28;19912;-91
2021/12/12 06:40:41;;;;;;;;;;;2.50;99.90;;;;;;4996077;28;19907;-92
2021/12/12 06:43:08;;;;;;;;;;;2.40;99.90;;;;;;4996263;28;20290;-91
2021/12/12 06:45:35;;;;;;;;;;;2.30;99.90;;;;;;4997378;28;19909;-90
2021/12/12 06:48:08;;;;;;;;;;;2.40;99.90;;;;;;5013171;28;20000;-91
2021/12/12 06:50:35;;;;;;;;;;;2.40;99.90;;;;;;4995939;28;19931;-91
2021/12/12 06:53:02;;;;;;;;;;;2.40;99.90;;;;;;4998973;28;19907;-91
2021/12/12 06:55:29;;;;;;;;;;;2.40;99.90;;;;;;4999196;28;19905;-91
2021/12/12 06:57:54;;;;;;;;;;;2.30;99.90;;;;;;4999316;28;19920;-91
2021/12/12 07:00:21;;;;;;;;;;;2.30;99.90;;;;;;4999209;28;19905;-91
2021/12/12 07:02:47;;;;;;;;;;;2.30;99.90;;;;;;4999403;28;19905;-91
2021/12/12 07:05:21;;;;;;;;;;;2.30;99.90;;;;;;4999042;28;20294;-91
2021/12/12 07:07:48;;;;;;;;;;;2.40;99.90;;;;;;4999132;28;19955;-91
2021/12/12 07:10:15;;;;;;;;;;;2.50;99.90;;;;;;4999286;28;19905;-91
2021/12/12 07:12:41;;;;;;;;;;;2.40;99.90;;;;;;4999716;28;19906;-91
2021/12/12 07:15:11;;;;;;;;;;;2.30;99.90;;;;;;5003022;28;19913;-92
2021/12/12 07:17:37;;;;;;;;;;;2.40;99.90;;;;;;4999897;28;19906;-91
2021/12/12 07:20:04;;;;;;;;;;;2.40;99.90;;;;;;4999914;28;19905;-91
2021/12/12 07:22:30;;;;;;;;;;;2.40;99.90;;;;;;4999419;28;19937;-91
2021/12/12 07:24:58;;;;;;;;;;;2.60;99.90;;;;;;4999162;28;20445;-91
2021/12/12 07:27:24;;;;;;;;;;;2.60;99.90;;;;;;4998453;28;19911;-91
2021/12/12 07:29:49;;;;;;;;;;;2.70;99.90;;;;;;4999115;28;19905;-91
2021/12/12 07:32:15;;;;;;;;;;;2.80;99.90;;;;;;4998655;28;20329;-91
2021/12/12 07:34:41;;;;;;;;;;;2.70;99.90;;;;;;4999269;28;19937;-91
2021/12/12 07:37:08;;;;;;;;;;;2.80;99.90;;;;;;5000138;28;20422;-92
2021/12/12 07:39:34;;;;;;;;;;;2.90;99.90;;;;;;5001257;28;19905;-89
2021/12/12 07:42:03;;;;;;;;;;;2.80;99.90;;;;;;5024653;28;19976;-91
2021/12/12 07:44:31;;;;;;;;;;;2.80;99.90;;;;;;5024345;28;19972;-88
2021/12/12 07:46:58;;;;;;;;;;;2.80;99.90;;;;;;5023461;28;19905;-90
2021/12/12 07:49:26;;;;;;;;;;;3.00;99.90;;;;;;5040033;28;20006;-89
2021/12/12 07:51:52;;;;;;;;;;;2.90;99.90;;;;;;5023172;28;19917;-90
2021/12/12 07:54:18;;;;;;;;;;;2.80;99.90;;;;;;5031475;28;19909;-91
2021/12/12 07:56:45;;;;;;;;;;;2.80;99.90;;;;;;4998465;28;20457;-91
2021/12/12 07:59:11;;;;;;;;;;;2.80;99.90;;;;;;4998726;28;20267;-91
2021/12/12 08:01:39;;;;;;;;;;;2.90;99.90;;;;;;4998543;28;19905;-91
2021/12/12 08:04:05;;;;;;;;;;;3.00;99.90;;;;;;4998899;28;19992;-90
2021/12/12 08:06:31;;;;;;;;;;;3.00;99.90;;;;;;4998997;28;19993;-90
2021/12/12 08:08:57;;;;;;;;;;;2.90;99.90;;;;;;4999006;28;20286;-90
2021/12/12 08:11:26;;;;;;;;;;;3.00;99.90;;;;;;4997922;28;19906;-90
2021/12/12 08:13:52;;;;;;;;;;;3.00;99.90;;;;;;4999194;28;20382;-90
2021/12/12 08:16:18;;;;;;;;;;;3.10;99.90;;;;;;4998265;28;19996;-90
2021/12/12 08:18:44;;;;;;;;;;;3.20;99.90;;;;;;4998101;28;20371;-90
2021/12/12 08:21:10;;;;;;;;;;;3.30;99.90;;;;;;4998710;28;19910;-90
2021/12/12 08:23:37;;;;;;;;;;;3.20;99.90;;;;;;4997919;28;20000;-89
2021/12/12 08:26:03;;;;;;;;;;;3.20;99.90;;;;;;4999876;28;19920;-90
2021/12/12 08:28:30;;;;;;;;;;;3.20;99.90;;;;;;4999597;28;19905;-89
2021/12/12 08:30:56;;;;;;;;;;;3.40;99.90;;;;;;5021038;28;19921;-88
2021/12/12 08:33:22;;;;;;;;;;;3.20;99.90;;;;;;5013497;28;19944;-90
2021/12/12 08:35:48;;;;;;;;;;;3.20;99.90;;;;;;4997855;28;19928;-90
2021/12/12 08:38:14;;;;;;;;;;;3.10;99.90;;;;;;5000194;28;20358;-90
2021/12/12 08:40:43;;;;;;;;;;;3.00;99.90;;;;;;4995139;28;20441;-89
2021/12/12 08:43:12;;;;;;;;;;;3.10;99.90;;;;;;4997860;28;19913;-90
2021/12/12 08:45:58;;;;;;;;;;;3.00;99.90;;;;;;4997537;28;19920;-89
2021/12/12 08:48:25;;;;;;;;;;;2.90;99.90;;;;;;4997404;28;20446;-90
2021/12/12 08:50:52;;;;;;;;;;;2.90;99.90;;;;;;4999988;28;19940;-89
2021/12/12 08:53:20;;;;;;;;;;;2.90;99.90;;;;;;4987004;28;19906;-90
2021/12/12 08:56:20;;;;;;;;;;;2.90;99.90;;;;;;4983736;28;19909;-90
2021/12/12 08:58:47;;;;;;;;;;;2.80;99.90;;;;;;4998599;28;19949;-88
2021/12/12 09:01:15;;;;;;;;;;;2.70;99.90;;;;;;4998510;28;19912;-90
2021/12/12 09:03:53;;;;;;;;;;;2.70;99.90;;;;;;4997726;28;20010;-90
2021/12/12 09:06:22;;;;;;;;;;;2.70;99.90;;;;;;4997992;28;19909;-90
2021/12/12 09:08:55;;;;;;;;;;;2.60;99.90;;;;;;4997657;28;20321;-89
2021/12/12 09:11:27;;;;;;;;;;;2.70;99.90;;;;;;4997474;28;19913;-91
2021/12/12 09:13:56;;;;;;;;;;;2.70;99.90;;;;;;4998077;28;20006;-90
2021/12/12 09:16:25;;;;;;;;;;;2.70;99.90;;;;;;5014830;28;19905;-91
2021/12/12 09:19:11;;;;;;;;;;;2.70;99.90;;;;;;4999049;28;19909;-91
2021/12/12 09:21:57;;;;;;;;;;;2.80;99.90;;;;;;4997889;28;19905;-89
2021/12/12 09:24:26;;;;;;;;;;;2.80;99.90;;;;;;4998139;28;19905;-91
2021/12/12 09:26:54;;;;;;;;;;;3.20;99.90;;;;;;5008916;28;19897;-90
2021/12/12 09:29:21;;;;;;;;;;;3.90;99.90;;;;;;5021354;28;19898;-90
2021/12/12 09:31:58;;;;;;;;;;;4.60;99.90;;;;;;5020947;28;19898;-89
2021/12/12 09:34:44;;;;;;;;;;;5.40;99.90;;;;;;5017744;28;19910;-91
2021/12/12 09:37:25;;;;;;;;;;;5.70;99.90;;;;;;5016566;28;19912;-90
2021/12/12 09:40:10;;;;;;;;;;;6.40;99.90;;;;;;5005496;28;20144;-89
2021/12/12 09:43:04;;;;;;;;;;;6.70;99.90;;;;;;5007538;28;19956;-89
2021/12/12 09:46:03;;;;;;;;;;;7.40;97.00;;;;;;4998714;28;20355;-91
2021/12/12 09:51:33;;;;;;;;;;;8.70;91.50;;;;;;5030422;28;19921;-76
2021/12/12 09:54:17;;;;;;;;;;;9.30;87.30;;;;;;4995498;28;19921;-75
2021/12/12 09:56:49;;;;;;;;;;;8.80;86.00;;;;;;5030844;28;20308;-75
2021/12/12 09:59:31;;;;;;;;;;;8.30;88.10;;;;;;5030945;28;19927;-75
2021/12/12 10:02:16;;;;;;;;;;;8.40;88.40;;;;;;5012312;28;19932;-76
2021/12/12 10:04:41;;;;;;;;;;;8.80;88.70;;;;;;5011130;28;20349;-76
2021/12/12 10:07:13;;;;;;;;;;;9.10;86.40;;;;;;5012179;28;19960;-75
2021/12/12 10:09:43;;;;;;;;;;;9.20;84.00;;;;;;5012333;28;20380;-75
2021/12/12 10:12:18;;;;;;;;;;;9.70;83.50;;;;;;5011087;28;19913;-76
2021/12/12 10:14:47;;;;;;;;;;;10.10;81.20;;;;;;5010800;28;19980;-75
2021/12/12 10:17:16;;;;;;;;;;;10.00;77.20;;;;;;5011975;28;20365;-76
2021/12/12 10:19:42;;;;;;;;;;;9.80;78.20;;;;;;5012838;28;19909;-76
2021/12/12 10:22:07;;;;;;;;;;;10.50;77.50;;;;;;5030733;28;19905;-76
2021/12/12 10:24:52;;;;;;;;;;;11.10;74.30;;;;;;5031696;28;20372;-75
2021/12/12 10:27:36;;;;;;;;;;;11.50;71.70;;;;;;5034316;28;19918;-75
2021/12/12 10:30:11;;;;;;;;;;;12.00;70.30;;;;;;5034702;28;20484;-77
2021/12/12 10:32:57;;;;;;;;;;;12.20;68.90;;;;;;5034629;28;20418;-77
2021/12/12 10:35:41;;;;;;;;;;;12.50;68.60;;;;;;4994369;28;20285;-78
2021/12/12 10:38:18;;;;;;;;;;;12.10;67.00;;;;;;5034810;28;19949;-77
2021/12/12 10:40:47;;;;;;;;;;;12.30;67.30;;;;;;5017926;28;19997;-77
2021/12/12 10:43:22;;;;;;;;;;;12.80;64.60;;;;;;5035867;28;19935;-77
2021/12/12 10:45:52;;;;;;;;;;;12.90;63.00;;;;;;5035432;28;20362;-77
2021/12/12 10:48:19;;;;;;;;;;;12.90;61.90;;;;;;5035547;28;20382;-77
2021/12/12 10:51:02;;;;;;;;;;;12.60;61.50;;;;;;5035260;28;19944;-77
2021/12/12 10:53:29;;;;;;;;;;;12.70;60.90;;;;;;5032568;28;19912;-77
2021/12/12 10:56:05;;;;;;;;;;;12.70;62.60;;;;;;5016957;28;19909;-77
2021/12/12 10:58:37;;;;;;;;;;;12.50;60.60;;;;;;5035121;28;19905;-77
2021/12/12 11:01:08;;;;;;;;;;;11.80;62.00;;;;;;5033601;28;19905;-77
2021/12/12 11:03:52;;;;;;;;;;;11.20;63.50;;;;;;5017149;28;19955;-79
2021/12/12 11:06:24;;;;;;;;;;;11.50;63.10;;;;;;5034757;28;20004;-76
2021/12/12 11:09:05;;;;;;;;;;;10.20;64.30;;;;;;5034351;28;19906;-77
2021/12/12 11:11:36;;;;;;;;;;;10.60;67.70;;;;;;5035160;28;19916;-76
2021/12/12 11:14:02;;;;;;;;;;;10.00;66.20;;;;;;5033849;28;19912;-77
2021/12/12 11:16:31;;;;;;;;;;;9.60;67.60;;;;;;5035046;28;19909;-77
2021/12/12 11:19:00;;;;;;;;;;;9.40;68.90;;;;;;5035044;28;19912;-77
2021/12/12 11:21:29;;;;;;;;;;;9.20;70.30;;;;;;5034904;28;19905;-77
2021/12/12 11:23:56;;;;;;;;;;;9.80;68.80;;;;;;5017016;28;19951;-77
2021/12/12 11:26:26;;;;;;;;;;;10.20;67.50;;;;;;5032062;28;19916;-77
2021/12/12 11:28:54;;;;;;;;;;;11.00;65.90;;;;;;5034876;28;19912;-77
2021/12/12 11:31:24;;;;;;;;;;;11.40;64.50;;;;;;5034847;28;20584;-77
2021/12/12 11:33:50;;;;;;;;;;;11.40;62.60;;;;;;5033544;28;19908;-77
2021/12/12 11:36:20;;;;;;;;;;;11.30;63.10;;;;;;5033319;28;19905;-78
2021/12/12 11:39:12;;;;;;;;;;;11.10;62.90;;;;;;5016457;28;19912;-77
2021/12/12 11:41:48;;;;;;;;;;;10.80;62.50;;;;;;5030794;28;19905;-78
2021/12/12 11:44:19;;;;;;;;;;;10.00;64.30;;;;;;5017169;28;20319;-76
2021/12/12 11:47:04;;;;;;;;;;;8.90;67.80;;;;;;5034446;28;19959;-77
2021/12/12 11:49:36;;;;;;;;;;;8.00;70.30;;;;;;5034557;28;20327;-76
2021/12/12 11:52:05;;;;;;;;;;;7.00;74.60;;;;;;5034669;28;19912;-77
2021/12/12 11:54:30;;;;;;;;;;;6.40;77.90;;;;;;5016809;28;20261;-79
2021/12/12 11:57:04;;;;;;;;;;;6.50;80.90;;;;;;5033148;28;19916;-77
2021/12/12 11:59:49;;;;;;;;;;;6.20;80.20;;;;;;5016869;28;19905;-76
2021/12/12 12:02:25;;;;;;;;;;;5.90;81.70;;;;;;5033139;28;19955;-77
2021/12/12 12:04:57;;;;;;;;;;;5.60;83.40;;;;;;5032606;28;19906;-77
2021/12/12 12:07:41;;;;;;;;;;;5.50;83.50;;;;;;5016363;28;19912;-77
2021/12/12 12:10:07;;;;;;;;;;;5.50;84.30;;;;;;5013096;28;20456;-77
2021/12/12 12:12:52;;;;;;;;;;;5.70;86.50;;;;;;4996722;28;20000;-77
2021/12/12 12:15:34;;;;;;;;;;;5.90;84.60;;;;;;5013082;28;20250;-76
2021/12/12 12:18:20;;;;;;;;;;;6.00;83.90;;;;;;5013193;28;20272;-77
2021/12/12 12:20:53;;;;;;;;;;;5.90;84.30;;;;;;5012759;28;19912;-76
2021/12/12 12:29:26;;;;;;;;;;;6.20;86.50;;;;;;5014102;28;19906;-76
2021/12/12 12:32:04;;;;;;;;;;;6.30;85.80;;;;;;5013818;28;19948;-77
2021/12/12 12:34:42;;;;;;;;;;;6.30;86.00;;;;;;5012708;28;19981;-76
2021/12/12 12:37:26;;;;;;;;;;;6.40;86.10;;;;;;5012336;28;20427;-77
2021/12/12 12:40:11;;;;;;;;;;;6.30;87.10;;;;;;5032297;28;19905;-76
2021/12/12 12:42:55;;;;;;;;;;;6.10;86.70;;;;;;5033522;28;19905;-76
2021/12/12 12:45:39;;;;;;;;;;;6.00;88.10;;;;;;5033416;28;20360;-77
2021/12/12 12:48:23;;;;;;;;;;;6.10;89.40;;;;;;5033272;28;20375;-77
2021/12/12 12:51:07;;;;;;;;;;;5.90;88.40;;;;;;5032995;28;19917;-77
2021/12/12 12:53:33;;;;;;;;;;;5.80;90.00;;;;;;5032202;28;19905;-77
2021/12/12 12:55:59;;;;;;;;;;;5.80;90.00;;;;;;5031950;28;19916;-77
2021/12/12 12:58:43;;;;;;;;;;;5.90;90.10;;;;;;5031928;28;20361;-77
2021/12/12 13:01:16;;;;;;;;;;;5.90;90.50;;;;;;5015361;28;19909;-77
2021/12/12 13:04:08;;;;;;;;;;;5.90;89.50;;;;;;5033344;28;19987;-77
2021/12/12 13:06:52;;;;;;;;;;;5.60;90.30;;;;;;5015294;28;19932;-77
2021/12/12 13:09:21;;;;;;;;;;;5.60;89.70;;;;;;5031698;28;19959;-76
2021/12/12 13:11:52;;;;;;;;;;;5.50;90.50;;;;;;5032283;28;19905;-77
2021/12/12 13:14:36;;;;;;;;;;;5.40;91.30;;;;;;5035148;28;19954;-77
2021/12/12 13:17:14;;;;;;;;;;;5.70;91.50;;;;;;5034463;28;20415;-76
2021/12/12 13:19:55;;;;;;;;;;;5.90;90.50;;;;;;5033091;28;19912;-77
2021/12/12 13:22:24;;;;;;;;;;;5.90;91.00;;;;;;5032382;28;20295;-77
2021/12/12 13:25:08;;;;;;;;;;;6.10;91.50;;;;;;5015131;28;19952;-77
2021/12/12 13:27:49;;;;;;;;;;;6.20;91.50;;;;;;5030136;28;19905;-77
2021/12/12 13:30:30;;;;;;;;;;;6.30;91.10;;;;;;5031503;28;19905;-77
2021/12/12 13:32:55;;;;;;;;;;;6.20;91.50;;;;;;5031479;28;19905;-77
2021/12/12 13:35:45;;;;;;;;;;;6.30;91.00;;;;;;5032765;28;19905;-77
2021/12/12 13:38:13;;;;;;;;;;;6.20;91.30;;;;;;5031445;28;19905;-77
2021/12/12 13:40:47;;;;;;;;;;;6.00;91.50;;;;;;5032642;28;19905;-77
2021/12/12 13:43:31;;;;;;;;;;;6.00;91.90;;;;;;5032627;28;20000;-76
2021/12/12 13:46:16;;;;;;;;;;;6.00;92.10;;;;;;5031018;28;20458;-77
2021/12/12 13:48:53;;;;;;;;;;;5.80;91.80;;;;;;5032556;28;19909;-77
2021/12/12 13:51:31;;;;;;;;;;;5.70;92.30;;;;;;5032492;28;19952;-77
2021/12/12 13:54:09;;;;;;;;;;;5.80;92.20;;;;;;5031396;28;19996;-77
2021/12/12 13:56:41;;;;;;;;;;;5.80;92.10;;;;;;5032264;28;20327;-77
2021/12/12 13:59:26;;;;;;;;;;;5.90;92.10;;;;;;5014679;28;19913;-77
2021/12/12 14:01:51;;;;;;;;;;;5.80;92.50;;;;;;5035028;28;19905;-76
2021/12/12 14:04:20;;;;;;;;;;;5.70;92.40;;;;;;5035291;28;20491;-77
2021/12/12 14:06:46;;;;;;;;;;;5.80;92.70;;;;;;5035073;28;20004;-77
2021/12/12 14:09:14;;;;;;;;;;;5.80;92.60;;;;;;5035401;28;20515;-77
2021/12/12 14:11:44;;;;;;;;;;;5.70;92.00;;;;;;5036483;28;19905;-77
2021/12/12 14:14:23;;;;;;;;;;;5.60;93.10;;;;;;5036414;28;19912;-77
2021/12/12 14:16:54;;;;;;;;;;;5.70;93.60;;;;;;5036277;28;19909;-77
2021/12/12 14:19:28;;;;;;;;;;;5.60;93.90;;;;;;5035068;28;19905;-77
2021/12/12 14:21:54;;;;;;;;;;;5.80;94.10;;;;;;5035259;28;19980;-77
2021/12/12 14:24:21;;;;;;;;;;;5.70;93.40;;;;;;5034531;28;19948;-77
2021/12/12 14:26:50;;;;;;;;;;;5.70;94.10;;;;;;5036035;28;20003;-77
2021/12/12 14:29:19;;;;;;;;;;;5.70;94.30;;;;;;5034980;28;19905;-77
2021/12/12 14:32:01;;;;;;;;;;;5.80;94.40;;;;;;5034510;28;19905;-76
2021/12/12 14:34:30;;;;;;;;;;;5.80;93.90;;;;;;5032203;28;19905;-77
2021/12/12 14:36:59;;;;;;;;;;;5.90;93.90;;;;;;5035694;28;20460;-77
2021/12/12 14:39:25;;;;;;;;;;;5.70;94.00;;;;;;5036100;28;19963;-77
2021/12/12 14:41:59;;;;;;;;;;;5.80;94.40;;;;;;5018120;28;19908;-77
2021/12/12 14:44:30;;;;;;;;;;;5.90;93.40;;;;;;5034639;28;20353;-77
2021/12/12 14:47:00;;;;;;;;;;;5.80;93.60;;;;;;5035739;28;19909;-77
2021/12/12 14:49:34;;;;;;;;;;;5.70;93.60;;;;;;5035896;28;19913;-77
2021/12/12 14:52:03;;;;;;;;;;;5.70;94.10;;;;;;5034456;28;20357;-77
2021/12/12 14:54:34;;;;;;;;;;;5.60;94.20;;;;;;5033813;28;19916;-77
2021/12/12 14:57:01;;;;;;;;;;;5.50;94.70;;;;;;5033426;28;19905;-76
2021/12/12 14:59:29;;;;;;;;;;;5.60;94.80;;;;;;5035612;28;20373;-76
2021/12/12 15:01:57;;;;;;;;;;;5.70;96.10;;;;;;5018059;28;19909;-79
2021/12/12 15:04:32;;;;;;;;;;;5.70;95.10;;;;;;5035757;28;19909;-77
2021/12/12 15:07:04;;;;;;;;;;;5.70;95.00;;;;;;5035306;28;20011;-77
2021/12/12 15:09:42;;;;;;;;;;;5.60;95.60;;;;;;5035498;28;19909;-77
2021/12/12 15:12:12;;;;;;;;;;;5.50;96.10;;;;;;5033421;28;20378;-77
2021/12/12 15:14:38;;;;;;;;;;;5.40;96.10;;;;;;5035519;28;19992;-77
2021/12/12 15:17:10;;;;;;;;;;;5.40;96.20;;;;;;5034161;28;20010;-77
2021/12/12 15:19:42;;;;;;;;;;;5.40;97.00;;;;;;5034368;28;19958;-77